sensor_id;sensor_type;location;lat;lon;timestamp;pressure;altitude;pressure_sealevel;temperature;humidity
43683;BME280;29285;52.128;21.060;2023-01-31T00:00:32;99067.48;;;2.44;100.00
43683;BME280;29285;52.128;21.060;2023-01-31T00:05:53;99068.16;;;2.48;100.00
43683;BME280;29285;52.128;21.060;2023-01-31T00:10:57;99062.33;;;2.50;100.00
43683;BME280;29285;52.128;21.060;2023-01-31T00:15:59;99082.19;;;2.50;100.00
43683;BME280;29285;52.128;21.060;2023-01-31T00:21:08;99083.21;;;2.51;100.00
43683;BME280;29285;52.128;21.060;2023-01-31T00:26:11;99079.61;;;2.53;100.00
43683;BME280;29285;52.128;21.060;2023-01-31T00:31:13;99083.38;;;2.53;100.00
43683;BME280;29285;52.128;21.060;2023-01-31T00:36:16;99087.30;;;2.61;100.00
43683;BME280;29285;52.128;21.060;2023-01-31T00:41:19;99091.42;;;2.96;100.00
43683;BME280;29285;52.128;21.060;2023-01-31T00:46:21;99099.34;;;2.86;100.00
43683;BME280;29285;52.128;21.060;2023-01-31T00:51:24;99107.11;;;2.76;100.00
43683;BME280;29285;52.128;21.060;2023-01-31T00:56:26;99102.68;;;2.68;100.00
43683;BME280;29285;52.128;21.060;2023-01-31T01:01:28;99110.23;;;2.65;100.00
43683;BME280;29285;52.128;21.060;2023-01-31T01:06:29;99116.73;;;2.63;100.00
43683;BME280;29285;52.128;21.060;2023-01-31T01:11:31;99116.04;;;2.66;100.00
43683;BME280;29285;52.128;21.060;2023-01-31T01:16:34;99124.79;;;2.66;100.00
43683;BME280;29285;52.128;21.060;2023-01-31T01:21:36;99130.27;;;2.64;100.00
43683;BME280;29285;52.128;21.060;2023-01-31T01:26:42;99126.67;;;2.62;100.00
43683;BME280;29285;52.128;21.060;2023-01-31T01:31:44;99128.91;;;2.60;100.00
43683;BME280;29285;52.128;21.060;2023-01-31T01:36:46;99131.31;;;2.59;100.00
43683;BME280;29285;52.128;21.060;2023-01-31T01:41:48;99124.63;;;2.57;100.00
43683;BME280;29285;52.128;21.060;2023-01-31T01:46:51;99134.40;;;2.56;100.00
43683;BME280;29285;52.128;21.060;2023-01-31T01:51:53;99142.28;;;2.55;100.00
43683;BME280;29285;52.128;21.060;2023-01-31T01:56:57;99147.41;;;2.54;100.00
43683;BME280;29285;52.128;21.060;2023-01-31T02:02:00;99156.66;;;2.52;100.00
43683;BME280;29285;52.128;21.060;2023-01-31T02:07:05;99163.52;;;2.50;100.00
43683;BME280;29285;52.128;21.060;2023-01-31T02:12:08;99180.98;;;2.49;100.00
43683;BME280;29285;52.128;21.060;2023-01-31T02:17:11;99186.82;;;2.49;100.00
43683;BME280;29285;52.128;21.060;2023-01-31T02:32:19;99215.58;;;2.52;100.00
43683;BME280;29285;52.128;21.060;2023-01-31T02:37:29;99219.17;;;2.55;100.00
43683;BME280;29285;52.128;21.060;2023-01-31T02:43:19;99225.67;;;2.56;100.00
43683;BME280;29285;52.128;21.060;2023-01-31T02:48:01;99225.84;;;2.55;100.00
43683;BME280;29285;52.128;21.060;2023-01-31T02:53:06;99236.80;;;2.56;100.00
43683;BME280;29285;52.128;21.060;2023-01-31T02:58:11;99245.54;;;2.55;100.00
43683;BME280;29285;52.128;21.060;2023-01-31T03:03:18;99254.95;;;2.57;100.00
43683;BME280;29285;52.128;21.060;2023-01-31T03:08:20;99265.39;;;2.57;100.00
43683;BME280;29285;52.128;21.060;2023-01-31T03:13:43;99280.81;;;2.59;100.00
43683;BME280;29285;52.128;21.060;2023-01-31T03:23:56;99294.50;;;2.67;100.00
43683;BME280;29285;52.128;21.060;2023-01-31T03:28:58;99301.88;;;2.69;100.00
43683;BME280;29285;52.128;21.060;2023-01-31T03:34:05;99312.67;;;2.66;100.00
43683;BME280;29285;52.128;21.060;2023-01-31T03:39:11;99318.83;;;2.65;100.00
43683;BME280;29285;52.128;21.060;2023-01-31T03:44:18;99324.83;;;2.66;100.00
43683;BME280;29285;52.128;21.060;2023-01-31T03:49:22;99329.63;;;2.70;100.00
43683;BME280;29285;52.128;21.060;2023-01-31T03:54:27;99331.00;;;2.69;100.00
43683;BME280;29285;52.128;21.060;2023-01-31T03:59:31;99329.96;;;2.69;100.00
43683;BME280;29285;52.128;21.060;2023-01-31T04:04:35;99337.85;;;2.68;100.00
43683;BME280;29285;52.128;21.060;2023-01-31T04:09:39;99343.84;;;2.73;100.00
43683;BME280;29285;52.128;21.060;2023-01-31T04:14:41;99351.38;;;2.73;100.00
43683;BME280;29285;52.128;21.060;2023-01-31T04:19:43;99350.35;;;2.74;100.00
43683;BME280;29285;52.128;21.060;2023-01-31T04:24:45;99348.81;;;2.73;100.00
43683;BME280;29285;52.128;21.060;2023-01-31T04:29:47;99360.96;;;2.73;100.00
43683;BME280;29285;52.128;21.060;2023-01-31T04:34:49;99371.76;;;2.74;100.00
43683;BME280;29285;52.128;21.060;2023-01-31T04:39:51;99386.15;;;2.75;100.00
43683;BME280;29285;52.128;21.060;2023-01-31T04:44:52;99382.73;;;2.74;100.00
43683;BME280;29285;52.128;21.060;2023-01-31T04:49:54;99383.06;;;2.70;100.00
43683;BME280;29285;52.128;21.060;2023-01-31T04:54:56;99386.33;;;2.69;100.00
43683;BME280;29285;52.128;21.060;2023-01-31T04:59:58;99387.17;;;2.69;100.00
43683;BME280;29285;52.128;21.060;2023-01-31T05:05:00;99393.33;;;2.65;100.00
43683;BME280;29285;52.128;21.060;2023-01-31T05:10:03;99397.79;;;2.63;100.00
43683;BME280;29285;52.128;21.060;2023-01-31T05:15:05;99417.14;;;2.61;100.00
43683;BME280;29285;52.128;21.060;2023-01-31T05:20:11;99430.67;;;2.64;100.00
43683;BME280;29285;52.128;21.060;2023-01-31T05:25:14;99435.48;;;2.67;100.00
43683;BME280;29285;52.128;21.060;2023-01-31T05:30:15;99448.50;;;2.66;100.00
43683;BME280;29285;52.128;21.060;2023-01-31T05:35:18;99460.30;;;2.64;100.00
43683;BME280;29285;52.128;21.060;2023-01-31T05:40:19;99480.52;;;2.65;100.00
43683;BME280;29285;52.128;21.060;2023-01-31T05:45:21;99483.25;;;2.65;100.00
43683;BME280;29285;52.128;21.060;2023-01-31T05:50:23;99486.69;;;2.68;100.00
43683;BME280;29285;52.128;21.060;2023-01-31T05:55:25;99493.71;;;2.69;100.00
43683;BME280;29285;52.128;21.060;2023-01-31T06:00:27;99504.34;;;2.69;100.00
43683;BME280;29285;52.128;21.060;2023-01-31T06:05:29;99510.35;;;2.73;100.00
43683;BME280;29285;52.128;21.060;2023-01-31T06:10:31;99519.42;;;2.76;100.00
43683;BME280;29285;52.128;21.060;2023-01-31T06:15:32;99537.94;;;2.74;100.00
43683;BME280;29285;52.128;21.060;2023-01-31T06:20:34;99551.28;;;2.75;100.00
43683;BME280;29285;52.128;21.060;2023-01-31T06:25:36;99564.96;;;2.70;100.00
43683;BME280;29285;52.128;21.060;2023-01-31T06:30:37;99576.09;;;2.69;100.00
43683;BME280;29285;52.128;21.060;2023-01-31T06:35:39;99582.11;;;2.69;100.00
43683;BME280;29285;52.128;21.060;2023-01-31T06:40:40;99591.00;;;2.69;100.00
43683;BME280;29285;52.128;21.060;2023-01-31T06:45:42;99596.99;;;2.66;100.00
43683;BME280;29285;52.128;21.060;2023-01-31T06:50:47;99597.01;;;2.69;100.00
43683;BME280;29285;52.128;21.060;2023-01-31T06:55:49;99609.86;;;2.72;100.00
43683;BME280;29285;52.128;21.060;2023-01-31T07:00:51;99614.50;;;2.73;100.00
43683;BME280;29285;52.128;21.060;2023-01-31T07:05:52;99618.10;;;2.75;100.00
43683;BME280;29285;52.128;21.060;2023-01-31T07:10:54;99629.73;;;2.74;100.00
43683;BME280;29285;52.128;21.060;2023-01-31T07:15:56;99640.73;;;2.76;100.00
43683;BME280;29285;52.128;21.060;2023-01-31T07:20:57;99651.83;;;3.07;100.00
43683;BME280;29285;52.128;21.060;2023-01-31T07:26:01;99654.35;;;2.97;100.00
43683;BME280;29285;52.128;21.060;2023-01-31T07:31:07;99672.64;;;2.88;100.00
43683;BME280;29285;52.128;21.060;2023-01-31T07:36:13;99680.01;;;2.86;100.00
43683;BME280;29285;52.128;21.060;2023-01-31T07:41:15;99683.76;;;2.84;100.00
43683;BME280;29285;52.128;21.060;2023-01-31T07:46:17;99685.10;;;2.80;100.00
43683;BME280;29285;52.128;21.060;2023-01-31T07:51:19;99690.26;;;2.81;100.00
43683;BME280;29285;52.128;21.060;2023-01-31T07:56:21;99698.65;;;2.81;100.00
43683;BME280;29285;52.128;21.060;2023-01-31T08:01:23;99697.98;;;2.82;100.00
43683;BME280;29285;52.128;21.060;2023-01-31T08:06:44;99702.27;;;2.87;100.00
43683;BME280;29285;52.128;21.060;2023-01-31T08:11:46;99714.96;;;2.88;100.00
43683;BME280;29285;52.128;21.060;2023-01-31T08:16:48;99720.27;;;2.86;100.00
43683;BME280;29285;52.128;21.060;2023-01-31T08:21:50;99730.52;;;2.82;100.00
43683;BME280;29285;52.128;21.060;2023-01-31T08:26:52;99734.82;;;2.83;100.00
43683;BME280;29285;52.128;21.060;2023-01-31T08:31:54;99740.13;;;2.82;100.00
43683;BME280;29285;52.128;21.060;2023-01-31T08:36:56;99746.64;;;2.83;100.00
43683;BME280;29285;52.128;21.060;2023-01-31T08:41:58;99757.48;;;2.90;100.00
43683;BME280;29285;52.128;21.060;2023-01-31T08:47:00;99758.17;;;2.92;100.00
43683;BME280;29285;52.128;21.060;2023-01-31T08:52:03;99765.55;;;2.91;100.00
43683;BME280;29285;52.128;21.060;2023-01-31T08:57:04;99761.77;;;2.92;100.00
43683;BME280;29285;52.128;21.060;2023-01-31T09:02:08;99766.95;;;2.97;100.00
43683;BME280;29285;52.128;21.060;2023-01-31T09:07:10;99772.80;;;3.01;100.00
43683;BME280;29285;52.128;21.060;2023-01-31T09:12:12;99779.69;;;3.07;100.00
43683;BME280;29285;52.128;21.060;2023-01-31T09:17:13;99784.67;;;3.11;100.00
43683;BME280;29285;52.128;21.060;2023-01-31T09:22:15;99792.23;;;3.13;100.00
43683;BME280;29285;52.128;21.060;2023-01-31T09:27:17;99797.39;;;3.16;100.00
43683;BME280;29285;52.128;21.060;2023-01-31T09:32:19;99799.12;;;3.18;100.00
43683;BME280;29285;52.128;21.060;2023-01-31T09:37:21;99803.23;;;3.18;100.00
43683;BME280;29285;52.128;21.060;2023-01-31T09:42:25;99808.92;;;3.21;100.00
43683;BME280;29285;52.128;21.060;2023-01-31T09:47:30;99806.33;;;3.20;100.00
43683;BME280;29285;52.128;21.060;2023-01-31T09:52:34;99812.65;;;3.17;100.00
43683;BME280;29285;52.128;21.060;2023-01-31T09:57:42;99824.13;;;3.13;100.00
43683;BME280;29285;52.128;21.060;2023-01-31T10:07:56;99819.36;;;3.20;100.00
43683;BME280;29285;52.128;21.060;2023-01-31T10:13:02;99812.02;;;3.26;100.00
43683;BME280;29285;52.128;21.060;2023-01-31T10:18:21;99816.66;;;3.30;100.00
43683;BME280;29285;52.128;21.060;2023-01-31T10:23:37;99816.54;;;3.38;100.00
43683;BME280;29285;52.128;21.060;2023-01-31T10:34:05;99809.24;;;3.55;100.00
43683;BME280;29285;52.128;21.060;2023-01-31T10:44:54;99811.52;;;3.68;100.00
43683;BME280;29285;52.128;21.060;2023-01-31T10:49:56;99808.95;;;3.68;100.00
43683;BME280;29285;52.128;21.060;2023-01-31T11:00:06;99815.63;;;3.63;100.00
43683;BME280;29285;52.128;21.060;2023-01-31T11:05:12;99817.16;;;3.64;100.00
43683;BME280;29285;52.128;21.060;2023-01-31T11:10:23;99814.08;;;3.66;100.00
43683;BME280;29285;52.128;21.060;2023-01-31T11:15:27;99807.61;;;3.74;100.00
43683;BME280;29285;52.128;21.060;2023-01-31T11:20:30;99812.75;;;3.76;100.00
43683;BME280;29285;52.128;21.060;2023-01-31T11:25:32;99810.38;;;3.80;100.00
43683;BME280;29285;52.128;21.060;2023-01-31T11:30:35;99805.58;;;3.84;100.00
43683;BME280;29285;52.128;21.060;2023-01-31T11:35:39;99809.55;;;3.93;100.00
43683;BME280;29285;52.128;21.060;2023-01-31T11:40:51;99808.20;;;4.03;100.00
43683;BME280;29285;52.128;21.060;2023-01-31T11:45:54;99804.76;;;3.99;100.00
43683;BME280;29285;52.128;21.060;2023-01-31T11:50:58;99810.27;;;4.05;100.00
43683;BME280;29285;52.128;21.060;2023-01-31T11:56:09;99809.06;;;4.05;100.00
43683;BME280;29285;52.128;21.060;2023-01-31T12:01:16;99804.58;;;3.96;100.00
43683;BME280;29285;52.128;21.060;2023-01-31T12:06:37;99797.36;;;3.90;100.00
43683;BME280;29285;52.128;21.060;2023-01-31T12:11:40;99797.70;;;3.87;100.00
43683;BME280;29285;52.128;21.060;2023-01-31T12:16:49;99781.45;;;4.23;100.00
43683;BME280;29285;52.128;21.060;2023-01-31T12:26:59;99771.25;;;5.11;100.00
43683;BME280;29285;52.128;21.060;2023-01-31T12:37:40;99758.20;;;5.87;100.00
43683;BME280;29285;52.128;21.060;2023-01-31T12:53:15;99760.83;;;6.93;100.00
43683;BME280;29285;52.128;21.060;2023-01-31T13:03:30;99762.20;;;6.77;100.00
43683;BME280;29285;52.128;21.060;2023-01-31T13:08:34;99763.52;;;7.00;100.00
43683;BME280;29285;52.128;21.060;2023-01-31T13:13:41;99764.95;;;7.11;100.00
43683;BME280;29285;52.128;21.060;2023-01-31T13:18:46;99772.72;;;6.56;100.00
43683;BME280;29285;52.128;21.060;2023-01-31T13:23:53;99762.84;;;5.89;100.00
43683;BME280;29285;52.128;21.060;2023-01-31T13:29:10;99755.98;;;5.48;100.00
43683;BME280;29285;52.128;21.060;2023-01-31T13:34:16;99751.96;;;5.19;100.00
43683;BME280;29285;52.128;21.060;2023-01-31T13:39:23;99738.79;;;4.97;100.00
43683;BME280;29285;52.128;21.060;2023-01-31T13:44:27;99729.58;;;4.65;100.00
43683;BME280;29285;52.128;21.060;2023-01-31T13:54:31;99739.90;;;4.28;100.00
43683;BME280;29285;52.128;21.060;2023-01-31T13:59:35;99743.33;;;4.11;100.00
43683;BME280;29285;52.128;21.060;2023-01-31T14:10:26;99761.27;;;3.78;100.00
43683;BME280;29285;52.128;21.060;2023-01-31T14:15:45;99767.59;;;3.67;100.00
43683;BME280;29285;52.128;21.060;2023-01-31T14:20:48;99761.56;;;3.59;100.00
43683;BME280;29285;52.128;21.060;2023-01-31T14:25:49;99757.77;;;3.53;100.00
43683;BME280;29285;52.128;21.060;2023-01-31T14:30:51;99750.38;;;3.47;100.00
43683;BME280;29285;52.128;21.060;2023-01-31T15:02:01;99754.11;;;3.36;100.00
43683;BME280;29285;52.128;21.060;2023-01-31T15:07:18;99753.59;;;3.35;100.00
43683;BME280;29285;52.128;21.060;2023-01-31T15:17:40;99743.25;;;3.22;100.00
43683;BME280;29285;52.128;21.060;2023-01-31T15:22:42;99743.77;;;3.25;100.00
43683;BME280;29285;52.128;21.060;2023-01-31T15:27:44;99738.98;;;3.26;100.00
43683;BME280;29285;52.128;21.060;2023-01-31T15:32:55;99740.88;;;3.28;100.00
43683;BME280;29285;52.128;21.060;2023-01-31T15:38:08;99739.98;;;3.23;100.00
43683;BME280;29285;52.128;21.060;2023-01-31T15:43:23;99736.58;;;3.23;100.00
43683;BME280;29285;52.128;21.060;2023-01-31T15:48:25;99740.34;;;3.25;100.00
43683;BME280;29285;52.128;21.060;2023-01-31T15:53:28;99733.98;;;3.21;100.00
43683;BME280;29285;52.128;21.060;2023-01-31T15:58:30;99728.98;;;3.15;100.00
43683;BME280;29285;52.128;21.060;2023-01-31T16:03:35;99727.11;;;3.18;100.00
43683;BME280;29285;52.128;21.060;2023-01-31T16:08:37;99731.57;;;3.19;100.00
43683;BME280;29285;52.128;21.060;2023-01-31T16:13:40;99737.39;;;3.14;100.00
43683;BME280;29285;52.128;21.060;2023-01-31T16:18:44;99735.46;;;3.07;100.00
43683;BME280;29285;52.128;21.060;2023-01-31T16:23:55;99742.28;;;3.00;100.00
43683;BME280;29285;52.128;21.060;2023-01-31T16:28:57;99743.76;;;2.87;100.00
43683;BME280;29285;52.128;21.060;2023-01-31T16:34:00;99739.55;;;2.74;100.00
43683;BME280;29285;52.128;21.060;2023-01-31T16:39:05;99730.63;;;2.70;100.00
43683;BME280;29285;52.128;21.060;2023-01-31T16:44:11;99725.83;;;2.68;100.00
43683;BME280;29285;52.128;21.060;2023-01-31T16:49:36;99720.52;;;2.69;100.00
43683;BME280;29285;52.128;21.060;2023-01-31T16:54:50;99715.69;;;2.65;100.00
43683;BME280;29285;52.128;21.060;2023-01-31T16:59:52;99709.95;;;2.51;100.00
43683;BME280;29285;52.128;21.060;2023-01-31T17:04:58;99701.12;;;2.39;100.00
43683;BME280;29285;52.128;21.060;2023-01-31T17:10:02;99699.40;;;2.37;100.00
43683;BME280;29285;52.128;21.060;2023-01-31T17:15:11;99684.86;;;2.38;100.00
43683;BME280;29285;52.128;21.060;2023-01-31T17:20:16;99677.98;;;2.35;100.00
43683;BME280;29285;52.128;21.060;2023-01-31T17:25:20;99676.94;;;2.32;100.00
43683;BME280;29285;52.128;21.060;2023-01-31T17:30:23;99668.74;;;2.36;100.00
43683;BME280;29285;52.128;21.060;2023-01-31T17:35:38;99665.15;;;2.36;100.00
43683;BME280;29285;52.128;21.060;2023-01-31T17:40:40;99659.48;;;2.31;100.00
43683;BME280;29285;52.128;21.060;2023-01-31T17:45:43;99655.86;;;2.29;100.00
43683;BME280;29285;52.128;21.060;2023-01-31T17:50:44;99644.89;;;2.27;100.00
43683;BME280;29285;52.128;21.060;2023-01-31T17:55:46;99637.84;;;2.23;100.00
43683;BME280;29285;52.128;21.060;2023-01-31T18:00:48;99629.42;;;2.16;100.00
43683;BME280;29285;52.128;21.060;2023-01-31T18:05:50;99615.69;;;2.10;100.00
43683;BME280;29285;52.128;21.060;2023-01-31T18:10:53;99608.31;;;2.09;100.00
43683;BME280;29285;52.128;21.060;2023-01-31T18:16:02;99600.62;;;2.10;100.00
43683;BME280;29285;52.128;21.060;2023-01-31T18:21:04;99591.02;;;2.08;100.00
43683;BME280;29285;52.128;21.060;2023-01-31T18:26:09;99584.88;;;2.10;100.00
43683;BME280;29285;52.128;21.060;2023-01-31T18:31:11;99583.02;;;2.15;100.00
43683;BME280;29285;52.128;21.060;2023-01-31T18:36:15;99571.55;;;2.13;100.00
43683;BME280;29285;52.128;21.060;2023-01-31T18:41:18;99567.25;;;2.11;100.00
43683;BME280;29285;52.128;21.060;2023-01-31T18:46:21;99549.80;;;2.10;100.00
43683;BME280;29285;52.128;21.060;2023-01-31T18:51:23;99533.85;;;2.05;100.00
43683;BME280;29285;52.128;21.060;2023-01-31T18:56:24;99526.11;;;2.01;100.00
43683;BME280;29285;52.128;21.060;2023-01-31T19:01:26;99522.52;;;1.97;100.00
43683;BME280;29285;52.128;21.060;2023-01-31T19:06:34;99517.01;;;1.92;100.00
43683;BME280;29285;52.128;21.060;2023-01-31T19:11:36;99512.03;;;1.90;100.00
43683;BME280;29285;52.128;21.060;2023-01-31T19:16:41;99513.19;;;1.85;100.00
43683;BME280;29285;52.128;21.060;2023-01-31T19:21:43;99501.86;;;1.78;100.00
43683;BME280;29285;52.128;21.060;2023-01-31T19:26:45;99494.30;;;1.75;100.00
43683;BME280;29285;52.128;21.060;2023-01-31T19:31:46;99484.21;;;1.74;100.00
43683;BME280;29285;52.128;21.060;2023-01-31T19:36:48;99479.42;;;1.75;100.00
43683;BME280;29285;52.128;21.060;2023-01-31T19:41:50;99463.85;;;1.70;100.00
43683;BME280;29285;52.128;21.060;2023-01-31T19:46:51;99454.77;;;1.69;100.00
43683;BME280;29285;52.128;21.060;2023-01-31T19:51:54;99445.20;;;1.69;100.00
43683;BME280;29285;52.128;21.060;2023-01-31T19:56:56;99431.35;;;1.68;100.00
43683;BME280;29285;52.128;21.060;2023-01-31T20:01:58;99422.45;;;1.68;100.00
43683;BME280;29285;52.128;21.060;2023-01-31T20:06:59;99410.31;;;1.68;100.00
43683;BME280;29285;52.128;21.060;2023-01-31T20:12:01;99398.20;;;1.78;100.00
43683;BME280;29285;52.128;21.060;2023-01-31T20:17:03;99383.36;;;1.85;100.00
43683;BME280;29285;52.128;21.060;2023-01-31T20:22:05;99375.68;;;1.90;100.00
43683;BME280;29285;52.128;21.060;2023-01-31T20:27:06;99360.98;;;1.92;100.00
43683;BME280;29285;52.128;21.060;2023-01-31T20:32:08;99352.73;;;1.85;100.00
43683;BME280;29285;52.128;21.060;2023-01-31T20:37:11;99339.21;;;1.79;100.00
43683;BME280;29285;52.128;21.060;2023-01-31T20:42:13;99333.03;;;1.73;100.00
43683;BME280;29285;52.128;21.060;2023-01-31T20:47:15;99321.36;;;1.66;100.00
43683;BME280;29285;52.128;21.060;2023-01-31T20:52:17;99316.91;;;1.63;100.00
43683;BME280;29285;52.128;21.060;2023-01-31T20:57:20;99308.17;;;1.61;100.00
43683;BME280;29285;52.128;21.060;2023-01-31T21:02:21;99300.83;;;1.59;100.00
43683;BME280;29285;52.128;21.060;2023-01-31T21:07:23;99296.04;;;1.59;100.00
43683;BME280;29285;52.128;21.060;2023-01-31T21:12:25;99290.05;;;1.62;100.00
43683;BME280;29285;52.128;21.060;2023-01-31T21:17:27;99279.46;;;1.64;100.00
43683;BME280;29285;52.128;21.060;2023-01-31T21:22:29;99266.15;;;1.68;100.00
43683;BME280;29285;52.128;21.060;2023-01-31T21:27:31;99259.82;;;1.70;100.00
43683;BME280;29285;52.128;21.060;2023-01-31T21:32:33;99247.20;;;1.85;100.00
43683;BME280;29285;52.128;21.060;2023-01-31T21:37:35;99242.09;;;1.94;100.00
43683;BME280;29285;52.128;21.060;2023-01-31T21:42:36;99229.41;;;1.82;100.00
43683;BME280;29285;52.128;21.060;2023-01-31T21:47:40;99220.51;;;1.80;100.00
43683;BME280;29285;52.128;21.060;2023-01-31T21:53:00;99208.88;;;1.80;100.00
43683;BME280;29285;52.128;21.060;2023-01-31T21:58:02;99202.02;;;1.80;100.00
43683;BME280;29285;52.128;21.060;2023-01-31T22:03:03;99187.31;;;1.76;100.00
43683;BME280;29285;52.128;21.060;2023-01-31T22:08:05;99179.95;;;1.64;100.00
43683;BME280;29285;52.128;21.060;2023-01-31T22:13:07;99174.96;;;1.52;100.00
43683;BME280;29285;52.128;21.060;2023-01-31T22:18:08;99163.82;;;1.36;100.00
43683;BME280;29285;52.128;21.060;2023-01-31T22:23:10;99161.39;;;1.25;100.00
43683;BME280;29285;52.128;21.060;2023-01-31T22:28:11;99153.84;;;1.16;100.00
43683;BME280;29285;52.128;21.060;2023-01-31T22:33:13;99144.07;;;1.10;100.00
43683;BME280;29285;52.128;21.060;2023-01-31T22:38:16;99135.35;;;1.06;100.00
43683;BME280;29285;52.128;21.060;2023-01-31T22:43:18;99128.52;;;1.09;100.00
43683;BME280;29285;52.128;21.060;2023-01-31T22:48:22;99128.02;;;1.13;100.00
43683;BME280;29285;52.128;21.060;2023-01-31T22:53:24;99117.98;;;1.21;100.00
43683;BME280;29285;52.128;21.060;2023-01-31T22:58:26;99112.36;;;1.31;100.00
43683;BME280;29285;52.128;21.060;2023-01-31T23:03:28;99103.48;;;1.44;100.00
43683;BME280;29285;52.128;21.060;2023-01-31T23:08:30;99100.25;;;1.54;100.00
43683;BME280;29285;52.128;21.060;2023-01-31T23:13:32;99090.52;;;1.62;100.00
43683;BME280;29285;52.128;21.060;2023-01-31T23:18:34;99091.38;;;1.67;100.00
43683;BME280;29285;52.128;21.060;2023-01-31T23:23:36;99083.17;;;1.76;100.00
43683;BME280;29285;52.128;21.060;2023-01-31T23:28:38;99079.23;;;1.81;100.00
43683;BME280;29285;52.128;21.060;2023-01-31T23:33:39;99062.11;;;1.84;100.00
43683;BME280;29285;52.128;21.060;2023-01-31T23:38:41;99057.51;;;1.85;100.00
43683;BME280;29285;52.128;21.060;2023-01-31T23:43:43;99052.20;;;1.91;100.00
43683;BME280;29285;52.128;21.060;2023-01-31T23:48:45;99060.23;;;1.99;100.00
43683;BME280;29285;52.128;21.060;2023-01-31T23:53:46;99056.80;;;2.04;100.00
43683;BME280;29285;52.128;21.060;2023-01-31T23:58:48;99046.36;;;2.06;100.00
